Time;durP1;ratioP1;P1;durP2;ratioP2;P2;SDS_P1;SDS_P2;PMS_P1;PMS_P2;Temp;Humidity;BMP_temperature;BMP_pressure;BME280_temperature;BME280_humidity;BME280_pressure;Samples;Min_cycle;Max_cycle;Signal;HPM_P1;HPM_P2
2023/08/24 00:01:20;;;;;;;7.90;5.82;;;17.70;99.90;;;;;;5057882;28;20448;-89
2023/08/24 00:03:46;;;;;;;8.13;5.60;;;17.70;99.90;;;;;;5025983;28;20085;-89
2023/08/24 00:06:12;;;;;;;7.97;5.13;;;17.80;99.90;;;;;;5054980;28;20093;-89
2023/08/24 00:08:38;;;;;;;6.25;5.57;;;17.90;99.90;;;;;;5042552;28;20036;-89
2023/08/24 00:11:05;;;;;;;11.07;5.93;;;17.90;99.90;;;;;;5048690;28;20401;-89
2023/08/24 00:13:31;;;;;;;8.40;6.28;;;18.00;99.90;;;;;;5040313;28;20043;-89
2023/08/24 00:15:57;;;;;;;8.23;5.43;;;17.90;99.90;;;;;;5057128;28;20122;-89
2023/08/24 00:18:24;;;;;;;6.90;5.93;;;17.80;99.90;;;;;;5050329;28;20116;-89
2023/08/24 00:20:51;;;;;;;7.35;6.43;;;17.90;99.90;;;;;;5034034;28;20032;-89
2023/08/24 00:23:17;;;;;;;10.77;6.65;;;17.90;99.90;;;;;;5040269;28;20500;-89
2023/08/24 00:25:43;;;;;;;9.02;6.75;;;18.00;99.90;;;;;;5053626;28;20083;-89
2023/08/24 00:28:08;;;;;;;9.95;7.18;;;18.00;99.90;;;;;;5023263;28;20509;-90
2023/08/24 00:30:34;;;;;;;9.98;5.97;;;18.00;99.90;;;;;;5032257;28;20040;-90
2023/08/24 00:33:00;;;;;;;7.38;5.55;;;17.90;99.90;;;;;;5032320;28;20502;-90
2023/08/24 00:35:32;;;;;;;7.03;4.97;;;17.90;99.90;;;;;;5015491;28;20043;-89
2023/08/24 00:37:57;;;;;;;6.30;4.00;;;17.70;99.90;;;;;;5035907;28;20416;-89
2023/08/24 00:40:24;;;;;;;5.38;3.88;;;17.70;99.90;;;;;;5069352;28;20044;-90
2023/08/24 00:42:51;;;;;;;6.43;3.90;;;17.60;99.90;;;;;;5057113;28;20040;-89
2023/08/24 00:45:17;;;;;;;5.00;3.97;;;17.50;99.90;;;;;;5035338;28;20040;-89
2023/08/24 00:47:46;;;;;;;7.80;4.13;;;17.70;99.90;;;;;;5060303;28;20032;-90
2023/08/24 00:50:12;;;;;;;4.93;3.88;;;17.40;99.90;;;;;;5053056;28;20051;-89
2023/08/24 00:52:40;;;;;;;4.53;4.13;;;17.40;99.90;;;;;;5046498;28;20098;-89
2023/08/24 00:55:07;;;;;;;5.30;4.63;;;17.30;99.90;;;;;;5034194;28;20040;-89
2023/08/24 00:57:35;;;;;;;5.25;3.55;;;17.00;99.90;;;;;;5070493;28;20068;-89
2023/08/24 01:00:05;;;;;;;5.05;4.63;;;16.90;99.90;;;;;;5050130;28;20036;-89
2023/08/24 01:02:31;;;;;;;4.57;4.18;;;16.80;99.90;;;;;;5065918;28;20414;-89
2023/08/24 01:04:58;;;;;;;5.60;5.10;;;16.50;99.90;;;;;;5049509;28;20028;-90
2023/08/24 01:07:25;;;;;;;5.95;5.40;;;16.40;99.90;;;;;;5046946;28;20373;-90
2023/08/24 01:09:59;;;;;;;6.32;5.72;;;16.40;99.90;;;;;;5028485;28;20477;-90
2023/08/24 01:12:55;;;;;;;6.18;5.57;;;16.50;99.90;;;;;;5065470;28;20040;-90
2023/08/24 01:15:39;;;;;;;9.07;5.82;;;16.40;99.90;;;;;;5049529;28;20048;-89
2023/08/24 01:18:11;;;;;;;7.15;6.13;;;16.50;99.90;;;;;;5050201;28;20118;-90
2023/08/24 01:20:37;;;;;;;16.27;6.38;;;16.50;99.90;;;;;;5055447;28;20036;-90
2023/08/24 01:23:32;;;;;;;11.15;7.03;;;16.50;99.90;;;;;;5048354;28;20110;-90
2023/08/24 01:26:11;;;;;;;7.72;6.88;;;16.60;99.90;;;;;;5058239;28;20413;-90
2023/08/24 01:28:37;;;;;;;6.25;5.65;;;16.60;99.90;;;;;;5059508;28;20048;-90
2023/08/24 01:31:05;;;;;;;5.97;5.32;;;16.70;99.90;;;;;;5032167;28;20036;-90
2023/08/24 01:33:31;;;;;;;6.82;5.72;;;16.80;99.90;;;;;;5039037;28;20076;-90
2023/08/24 01:35:57;;;;;;;7.38;6.68;;;16.90;99.90;;;;;;5055381;28;20036;-90
2023/08/24 01:38:23;;;;;;;6.22;5.70;;;17.00;99.90;;;;;;5033591;28;20033;-89
2023/08/24 01:40:57;;;;;;;5.97;5.30;;;17.10;99.90;;;;;;5031489;28;20042;-90
2023/08/24 01:43:29;;;;;;;5.68;5.18;;;17.10;99.90;;;;;;5051868;28;20040;-90
2023/08/24 01:45:57;;;;;;;5.38;4.50;;;17.10;99.90;;;;;;5058127;28;20040;-90
2023/08/24 01:48:24;;;;;;;5.72;5.13;;;17.00;99.90;;;;;;5074716;28;20028;-90
2023/08/24 01:50:51;;;;;;;7.38;5.93;;;17.00;99.90;;;;;;5055258;28;20085;-91
2023/08/24 01:53:17;;;;;;;6.70;5.95;;;17.00;99.90;;;;;;5051366;28;20036;-89
2023/08/24 01:55:45;;;;;;;8.75;6.68;;;17.10;99.90;;;;;;5050621;28;20036;-90
2023/08/24 01:58:11;;;;;;;8.57;7.47;;;17.10;99.90;;;;;;5047895;28;20142;-90
2023/08/24 02:00:37;;;;;;;9.48;8.45;;;17.20;99.90;;;;;;5031236;28;20190;-90
2023/08/24 02:03:04;;;;;;;9.20;8.32;;;17.30;99.90;;;;;;5030010;28;20157;-89
2023/08/24 02:05:30;;;;;;;13.70;9.70;;;17.40;99.90;;;;;;5029807;28;20040;-90
2023/08/24 02:07:57;;;;;;;12.25;9.93;;;17.40;99.90;;;;;;5031495;28;20036;-89
2023/08/24 02:10:23;;;;;;;10.35;9.15;;;17.50;99.90;;;;;;5040781;28;20047;-90
2023/08/24 02:12:48;;;;;;;9.20;7.32;;;17.60;99.90;;;;;;5037346;28;20392;-89
2023/08/24 02:15:14;;;;;;;11.73;9.70;;;17.60;99.90;;;;;;5040960;28;20036;-89
2023/08/24 02:17:40;;;;;;;11.25;9.30;;;17.70;99.90;;;;;;5040754;28;20123;-90
2023/08/24 02:20:08;;;;;;;8.98;8.07;;;17.60;99.90;;;;;;5056417;28;20126;-90
2023/08/24 02:22:34;;;;;;;10.65;8.40;;;17.70;99.90;;;;;;5045886;28;20060;-89
2023/08/24 02:25:01;;;;;;;9.65;8.65;;;17.80;99.90;;;;;;5037270;28;20508;-90
2023/08/24 02:27:27;;;;;;;13.35;8.23;;;17.80;99.90;;;;;;5005086;28;20055;-90
2023/08/24 02:29:53;;;;;;;9.75;7.50;;;17.80;99.90;;;;;;5032194;28;20029;-90
2023/08/24 02:32:19;;;;;;;9.82;7.82;;;17.80;99.90;;;;;;5017809;28;20086;-90
2023/08/24 02:34:51;;;;;;;8.65;6.25;;;17.80;99.90;;;;;;4994965;28;20045;-90
2023/08/24 02:37:17;;;;;;;10.60;7.32;;;17.90;99.90;;;;;;5037597;28;20036;-89
2023/08/24 02:39:42;;;;;;;10.38;7.70;;;17.90;99.90;;;;;;5020171;28;20058;-89
2023/08/24 02:42:09;;;;;;;11.85;7.53;;;17.90;99.90;;;;;;5027812;28;20033;-89
2023/08/24 02:44:34;;;;;;;14.63;8.38;;;17.90;99.90;;;;;;5038199;28;20473;-90
2023/08/24 02:47:00;;;;;;;9.38;7.82;;;17.90;99.90;;;;;;5030563;28;20089;-89
2023/08/24 02:49:26;;;;;;;10.60;6.45;;;16.90;99.90;;;;;;5013501;28;20496;-90
2023/08/24 02:51:51;;;;;;;7.53;6.28;;;18.10;99.90;;;;;;5020274;28;20048;-90
2023/08/24 02:54:23;;;;;;;11.30;6.20;;;18.10;99.90;;;;;;4990612;28;20041;-91
2023/08/24 02:56:49;;;;;;;10.70;7.00;;;18.00;99.90;;;;;;5021189;28;20049;-91
2023/08/24 02:59:15;;;;;;;7.47;6.18;;;18.10;99.90;;;;;;5015912;28;20554;-89
2023/08/24 03:01:41;;;;;;;6.60;5.88;;;18.00;99.90;;;;;;5011713;28;20047;-89
2023/08/24 03:04:07;;;;;;;8.75;6.78;;;18.10;99.90;;;;;;5008879;28;20044;-89
2023/08/24 03:06:32;;;;;;;9.30;7.00;;;18.10;99.90;;;;;;5041065;28;20036;-90
2023/08/24 03:09:01;;;;;;;10.75;5.97;;;18.20;99.90;;;;;;5021322;28;20037;-90
2023/08/24 03:11:26;;;;;;;9.40;7.85;;;18.20;99.90;;;;;;5035068;28;20051;-89
2023/08/24 03:13:52;;;;;;;7.55;6.85;;;18.30;99.90;;;;;;5009721;28;20033;-89
2023/08/24 03:16:18;;;;;;;10.48;6.47;;;18.20;99.90;;;;;;5022328;28;20041;-90
2023/08/24 03:18:43;;;;;;;8.70;6.47;;;18.20;99.90;;;;;;5021768;28;20140;-89
2023/08/24 03:21:09;;;;;;;8.38;6.55;;;18.20;99.90;;;;;;5020674;28;20374;-89
2023/08/24 03:23:38;;;;;;;12.52;7.82;;;18.30;99.90;;;;;;5014658;28;20110;-89
2023/08/24 03:26:04;;;;;;;15.48;8.20;;;;;;;;;;5050786;28;20036;-90
2023/08/24 03:28:30;;;;;;;10.05;7.05;;;18.20;99.90;;;;;;5057201;28;20516;-90
2023/08/24 03:30:56;;;;;;;11.90;7.78;;;18.10;99.90;;;;;;5031471;28;20036;-89
2023/08/24 03:33:22;;;;;;;10.77;7.75;;;18.40;99.90;;;;;;5033165;28;20037;-90
2023/08/24 03:35:48;;;;;;;10.70;7.30;;;18.20;99.90;;;;;;5040129;28;20036;-89
2023/08/24 03:38:13;;;;;;;12.73;8.13;;;18.10;99.90;;;;;;5044062;28;20039;-90
2023/08/24 03:40:45;;;;;;;12.68;7.13;;;18.20;99.90;;;;;;5057338;28;20177;-90
2023/08/24 03:43:12;;;;;;;13.35;8.05;;;18.10;99.90;;;;;;5044207;28;20134;-90
2023/08/24 03:45:38;;;;;;;11.07;7.75;;;18.10;99.90;;;;;;5042787;28;20119;-90
2023/08/24 03:48:04;;;;;;;7.53;5.93;;;18.10;99.90;;;;;;5027881;28;20082;-89
2023/08/24 03:50:33;;;;;;;8.15;6.70;;;18.10;99.90;;;;;;5068080;28;20523;-89
2023/08/24 03:52:58;;;;;;;10.95;7.03;;;18.10;99.90;;;;;;5056127;28;20040;-89
2023/08/24 03:55:24;;;;;;;9.18;6.50;;;18.20;99.90;;;;;;5053595;28;20051;-89
2023/08/24 03:57:50;;;;;;;9.50;6.43;;;18.40;99.90;;;;;;5060228;28;20067;-89
2023/08/24 04:00:16;;;;;;;10.82;6.85;;;18.20;99.90;;;;;;5057293;28;20036;-89
2023/08/24 04:02:42;;;;;;;10.38;7.70;;;18.20;99.90;;;;;;5059437;28;20032;-90
2023/08/24 04:05:08;;;;;;;11.95;8.50;;;18.20;99.90;;;;;;5053999;28;20035;-89
2023/08/24 04:07:36;;;;;;;8.68;7.50;;;18.30;99.90;;;;;;5060136;28;20047;-89
2023/08/24 04:10:04;;;;;;;10.48;7.20;;;18.30;99.90;;;;;;5059928;28;20127;-90
2023/08/24 04:12:32;;;;;;;11.00;7.55;;;18.30;99.90;;;;;;5024443;28;20041;-90
2023/08/24 04:14:57;;;;;;;8.38;6.38;;;18.20;99.90;;;;;;5038604;28;20051;-89
2023/08/24 04:17:24;;;;;;;8.15;6.05;;;18.20;99.90;;;;;;5023210;28;20032;-90
2023/08/24 04:19:50;;;;;;;10.98;6.85;;;17.90;99.90;;;;;;5041393;28;20067;-89
2023/08/24 04:22:16;;;;;;;8.68;6.90;;;18.00;99.90;;;;;;5038647;28;20033;-90
2023/08/24 04:24:41;;;;;;;7.82;6.88;;;17.90;99.90;;;;;;5036469;28;20416;-90
2023/08/24 04:27:07;;;;;;;13.60;6.63;;;17.90;99.90;;;;;;5049498;28;20514;-90
2023/08/24 04:29:33;;;;;;;8.05;6.88;;;18.00;99.90;;;;;;5040428;28;20037;-89
2023/08/24 04:32:00;;;;;;;7.03;6.35;;;17.80;99.90;;;;;;5036948;28;20836;-90
2023/08/24 04:34:26;;;;;;;8.18;6.85;;;17.80;99.90;;;;;;5035146;28;20032;-90
2023/08/24 04:36:55;;;;;;;8.65;6.82;;;17.80;99.90;;;;;;5059516;28;20464;-89
2023/08/24 04:39:21;;;;;;;7.97;6.30;;;17.70;99.90;;;;;;5053677;28;20039;-91
2023/08/24 04:41:46;;;;;;;8.65;6.55;;;17.60;99.90;;;;;;5042499;28;20040;-89
2023/08/24 04:44:12;;;;;;;11.52;7.13;;;17.50;99.90;;;;;;5039724;28;20036;-89
2023/08/24 04:46:38;;;;;;;9.25;7.03;;;17.60;99.90;;;;;;5051565;28;20067;-90
2023/08/24 04:49:04;;;;;;;10.98;7.10;;;17.50;99.90;;;;;;5024254;28;20040;-89
2023/08/24 04:51:29;;;;;;;11.15;7.05;;;17.50;99.90;;;;;;5031470;28;20119;-89
2023/08/24 04:53:55;;;;;;;8.52;6.38;;;17.60;99.90;;;;;;5024458;28;20046;-90
2023/08/24 04:56:24;;;;;;;9.13;7.45;;;17.50;99.90;;;;;;5035736;28;20054;-91
2023/08/24 04:58:57;;;;;;;9.38;7.20;;;17.60;99.90;;;;;;5034321;28;20043;-89
2023/08/24 05:01:24;;;;;;;9.05;7.68;;;17.50;99.90;;;;;;5038033;28;20123;-90
2023/08/24 05:03:51;;;;;;;13.80;8.52;;;17.70;99.90;;;;;;5038781;28;20036;-90
2023/08/24 05:06:17;;;;;;;10.10;8.63;;;15.40;99.90;;;;;;5047379;28;20048;-90
2023/08/24 05:08:43;;;;;;;10.02;7.45;;;17.90;99.90;;;;;;5046303;28;20730;-90
2023/08/24 05:11:19;;;;;;;11.40;7.68;;;17.90;99.90;;;;;;5033358;28;20068;-90
2023/08/24 05:13:45;;;;;;;9.40;7.25;;;17.90;99.90;;;;;;5055561;28;20055;-90
2023/08/24 05:16:12;;;;;;;10.55;7.22;;;17.90;99.90;;;;;;5058336;28;20494;-89
2023/08/24 05:18:38;;;;;;;10.05;8.13;;;17.90;99.90;;;;;;5042110;28;20067;-90
2023/08/24 05:21:05;;;;;;;12.85;8.60;;;18.00;99.90;;;;;;5040615;28;20476;-89
2023/08/24 05:23:35;;;;;;;9.52;7.90;;;18.60;99.90;;;;;;5073564;28;20059;-89
2023/08/24 05:26:02;;;;;;;11.65;8.43;;;18.20;99.90;;;;;;5054121;28;20036;-89
2023/08/24 05:28:30;;;;;;;10.40;7.95;;;18.10;99.90;;;;;;5058320;28;20719;-89
2023/08/24 05:30:57;;;;;;;12.15;8.50;;;18.20;99.90;;;;;;5051944;28;20125;-88
2023/08/24 05:33:25;;;;;;;11.18;7.90;;;18.20;99.90;;;;;;5037980;28;20254;-88
2023/08/24 05:35:51;;;;;;;10.93;8.48;;;18.50;99.90;;;;;;5058031;28;20036;-87
2023/08/24 05:38:18;;;;;;;10.68;8.10;;;18.40;99.90;;;;;;5049443;28;20042;-88
2023/08/24 05:40:47;;;;;;;9.13;7.75;;;18.30;99.90;;;;;;5053182;28;20042;-92
2023/08/24 05:43:13;;;;;;;10.32;7.28;;;18.70;99.90;;;;;;5040274;28;21853;-89
2023/08/24 05:45:40;;;;;;;10.43;7.65;;;18.40;99.90;;;;;;5025261;28;20098;-90
2023/08/24 05:48:07;;;;;;;10.68;7.57;;;18.40;99.90;;;;;;5070381;28;20039;-89
2023/08/24 05:50:34;;;;;;;10.93;8.05;;;18.70;99.90;;;;;;5055326;28;20044;-89
2023/08/24 05:53:03;;;;;;;13.50;9.05;;;18.50;99.90;;;;;;5074085;28;20048;-89
2023/08/24 05:55:29;;;;;;;9.63;8.63;;;18.50;99.90;;;;;;5041365;28;20028;-89
2023/08/24 05:57:54;;;;;;;11.30;8.10;;;18.40;99.90;;;;;;5037639;28;20649;-91
2023/08/24 06:00:22;;;;;;;11.43;8.30;;;18.40;99.90;;;;;;5057475;28;20042;-90
2023/08/24 06:02:51;;;;;;;10.13;7.32;;;18.60;99.90;;;;;;5035110;28;20101;-88
2023/08/24 06:05:17;;;;;;;10.57;7.75;;;18.70;99.90;;;;;;5019060;28;20039;-90
2023/08/24 06:07:45;;;;;;;10.30;7.53;;;18.60;99.90;;;;;;5039985;28;20075;-90
2023/08/24 06:10:11;;;;;;;11.93;7.97;;;18.60;99.90;;;;;;5051508;28;20035;-90
2023/08/24 06:12:37;;;;;;;10.85;7.40;;;18.70;99.90;;;;;;5044032;28;20492;-88
2023/08/24 06:15:04;;;;;;;8.40;6.78;;;19.00;99.90;;;;;;5022555;28;20051;-89
2023/08/24 06:17:30;;;;;;;10.77;7.13;;;19.00;99.90;;;;;;5031633;28;20040;-89
2023/08/24 06:19:56;;;;;;;8.68;7.30;;;18.90;99.90;;;;;;5039677;28;20085;-89
2023/08/24 06:22:22;;;;;;;9.25;6.93;;;19.00;99.90;;;;;;5040239;28;20032;-91
2023/08/24 06:24:49;;;;;;;12.82;7.10;;;;;;;;;;5052694;28;20389;-88
2023/08/24 06:27:14;;;;;;;10.13;6.88;;;19.40;99.90;;;;;;5048455;28;20657;-88
2023/08/24 06:29:43;;;;;;;8.55;6.25;;;19.30;99.90;;;;;;5018138;28;20045;-90
2023/08/24 06:32:09;;;;;;;12.27;6.82;;;19.40;99.90;;;;;;5062220;28;20042;-91
2023/08/24 06:34:35;;;;;;;9.15;6.65;;;19.70;99.90;;;;;;5033734;28;20040;-90
2023/08/24 06:37:03;;;;;;;6.68;5.57;;;19.50;99.90;;;;;;5030536;28;20484;-91
2023/08/24 06:39:29;;;;;;;8.80;6.28;;;19.80;99.90;;;;;;5044073;28;20075;-89
2023/08/24 06:41:54;;;;;;;6.72;4.95;;;19.80;99.90;;;;;;5012490;28;20059;-90
2023/08/24 06:44:20;;;;;;;6.82;4.72;;;19.90;99.90;;;;;;5021395;28;20044;-90
2023/08/24 06:46:46;;;;;;;7.30;5.07;;;19.90;99.90;;;;;;5035669;28;20048;-90
2023/08/24 06:49:12;;;;;;;8.07;5.60;;;19.80;99.90;;;;;;5047372;28;20089;-90
2023/08/24 06:51:38;;;;;;;7.75;6.00;;;19.90;99.90;;;;;;5037739;28;20488;-90
2023/08/24 06:54:03;;;;;;;9.20;5.15;;;20.10;99.90;;;;;;5019786;28;20068;-89
2023/08/24 06:56:29;;;;;;;5.93;4.97;;;20.10;99.90;;;;;;5044593;28;20051;-89
2023/08/24 06:58:55;;;;;;;6.10;4.93;;;20.10;99.90;;;;;;5025975;28;20123;-90
2023/08/24 07:01:21;;;;;;;9.23;4.60;;;20.20;99.90;;;;;;5023187;28;20064;-89
2023/08/24 07:03:47;;;;;;;7.43;4.18;;;20.30;99.90;;;;;;5046228;28;20626;-89
2023/08/24 07:06:13;;;;;;;6.43;4.50;;;20.40;99.90;;;;;;5023531;28;20127;-92
2023/08/24 07:08:39;;;;;;;7.05;4.35;;;20.40;99.90;;;;;;5046779;28;20132;-90
2023/08/24 07:11:05;;;;;;;7.50;4.57;;;20.40;99.90;;;;;;5053667;28;20048;-91
2023/08/24 07:13:32;;;;;;;6.28;4.55;;;20.60;99.90;;;;;;5039446;28;20093;-91
2023/08/24 07:15:57;;;;;;;8.63;5.05;;;20.70;99.90;;;;;;5036716;28;20044;-90
2023/08/24 07:18:23;;;;;;;7.47;5.38;;;20.80;99.90;;;;;;5020746;28;20036;-90
2023/08/24 07:20:49;;;;;;;8.88;5.38;;;20.90;99.90;;;;;;5025594;28;20583;-89
2023/08/24 07:23:15;;;;;;;8.38;5.45;;;20.90;99.90;;;;;;5050619;28;20060;-88
2023/08/24 07:25:41;;;;;;;9.05;5.57;;;20.00;99.90;;;;;;5027415;28;20045;-90
2023/08/24 07:28:08;;;;;;;7.38;5.57;;;21.20;99.90;;;;;;5013038;28;20051;-90
2023/08/24 07:30:35;;;;;;;10.77;5.57;;;21.20;99.90;;;;;;5022553;28;20052;-89
2023/08/24 07:33:05;;;;;;;11.88;6.32;;;21.20;99.90;;;;;;5018611;28;20102;-91
2023/08/24 07:35:31;;;;;;;12.88;7.50;;;21.30;99.90;;;;;;5014870;28;20075;-91
2023/08/24 07:37:57;;;;;;;8.15;6.10;;;21.40;99.90;;;;;;5041001;28;20126;-89
2023/08/24 07:40:23;;;;;;;8.02;6.35;;;21.40;99.90;;;;;;5031194;28;20068;-89
2023/08/24 07:42:52;;;;;;;7.82;6.50;;;21.50;99.90;;;;;;5018708;28;20029;-90
2023/08/24 07:45:19;;;;;;;8.65;6.97;;;21.70;99.90;;;;;;4998841;28;20040;-92
2023/08/24 07:47:45;;;;;;;10.23;8.02;;;21.70;99.90;;;;;;4991368;28;20235;-93
2023/08/24 07:50:11;;;;;;;10.27;6.95;;;21.90;99.90;;;;;;5012969;28;20033;-90
2023/08/24 07:52:38;;;;;;;7.13;6.05;;;22.00;99.90;;;;;;5033457;28;20485;-90
2023/08/24 07:55:06;;;;;;;10.60;6.50;;;22.00;99.90;;;;;;5030715;28;20045;-89
2023/08/24 07:57:33;;;;;;;8.88;7.30;;;22.10;99.90;;;;;;5011622;28;20041;-89
2023/08/24 08:00:00;;;;;;;10.85;6.60;;;22.10;99.90;;;;;;5018227;28;20047;-88
2023/08/24 08:02:26;;;;;;;9.40;6.80;;;22.40;99.90;;;;;;5011134;28;20111;-90
2023/08/24 08:04:57;;;;;;;11.23;7.38;;;22.30;99.90;;;;;;5015683;28;20136;-92
2023/08/24 08:07:26;;;;;;;7.15;5.57;;;22.20;99.90;;;;;;5034778;28;20086;-89
2023/08/24 08:09:52;;;;;;;5.97;4.80;;;22.30;99.90;;;;;;5044451;28;20094;-90
2023/08/24 08:12:20;;;;;;;8.80;6.55;;;22.50;99.90;;;;;;5041957;28;20033;-89
2023/08/24 08:14:46;;;;;;;5.95;5.20;;;22.60;99.90;;;;;;5050731;28;20044;-89
2023/08/24 08:17:12;;;;;;;7.47;5.65;;;22.60;99.90;;;;;;5013902;28;20037;-90
2023/08/24 08:19:38;;;;;;;8.95;6.15;;;22.80;99.90;;;;;;5035078;28;20123;-89
2023/08/24 08:22:04;;;;;;;8.75;5.45;;;22.70;99.90;;;;;;5011207;28;20033;-90
2023/08/24 08:24:33;;;;;;;8.20;4.53;;;22.90;99.90;;;;;;5029678;28;20060;-92
2023/08/24 08:26:59;;;;;;;8.60;5.85;;;23.10;99.90;;;;;;5031349;28;20051;-89
2023/08/24 08:29:25;;;;;;;10.13;4.65;;;23.00;99.90;;;;;;5012294;28;20048;-89
2023/08/24 08:31:51;;;;;;;6.60;4.60;;;23.30;99.90;;;;;;5037827;28;20051;-88
2023/08/24 08:34:17;;;;;;;8.15;4.72;;;23.20;99.90;;;;;;5023655;28;20043;-88
2023/08/24 08:36:42;;;;;;;7.20;4.50;;;23.30;99.90;;;;;;5030114;28;20044;-90
2023/08/24 08:39:08;;;;;;;8.80;4.88;;;23.40;99.90;;;;;;5043717;28;20033;-90
2023/08/24 08:41:44;;;;;;;5.88;4.65;;;23.70;99.90;;;;;;5032547;28;20041;-90
2023/08/24 08:44:18;;;;;;;5.70;4.20;;;23.70;99.90;;;;;;5036521;28;20041;-90
2023/08/24 08:46:45;;;;;;;8.18;4.55;;;23.70;99.90;;;;;;5053258;28;20044;-88
2023/08/24 08:49:15;;;;;;;6.45;4.22;;;23.80;99.90;;;;;;5036177;28;20048;-88
2023/08/24 08:51:41;;;;;;;6.45;4.82;;;24.00;99.90;;;;;;5072068;28;20049;-89
2023/08/24 08:54:07;;;;;;;8.52;5.05;;;24.00;99.90;;;;;;5046691;28;20503;-89
2023/08/24 08:56:33;;;;;;;6.93;3.72;;;24.00;99.90;;;;;;5039443;28;20032;-90
2023/08/24 08:59:03;;;;;;;6.05;3.15;;;25.30;99.90;;;;;;5038601;28;20045;-89
2023/08/24 09:01:29;;;;;;;9.02;4.70;;;23.60;99.90;;;;;;5051070;28;20123;-90
2023/08/24 09:03:57;;;;;;;8.15;5.57;;;24.30;99.90;;;;;;5056396;28;20078;-90
2023/08/24 09:06:23;;;;;;;9.20;4.80;;;24.30;99.90;;;;;;5055656;28;20036;-88
2023/08/24 09:08:50;;;;;;;5.82;4.82;;;24.20;99.90;;;;;;5035213;28;20047;-90
2023/08/24 09:11:18;;;;;;;5.70;4.78;;;24.20;99.90;;;;;;5062801;28;20044;-89
2023/08/24 09:13:47;;;;;;;7.43;4.97;;;24.30;99.90;;;;;;5071928;28;20516;-90
2023/08/24 09:16:15;;;;;;;8.82;4.93;;;24.30;99.90;;;;;;5029841;28;20086;-90
2023/08/24 09:18:45;;;;;;;8.13;4.82;;;24.30;99.90;;;;;;5023312;28;20036;-89
2023/08/24 09:21:13;;;;;;;4.65;4.13;;;24.30;99.90;;;;;;5046351;28;20882;-90
2023/08/24 09:23:45;;;;;;;9.48;4.50;;;24.40;99.90;;;;;;5052530;28;20053;-89
2023/08/24 09:26:11;;;;;;;6.32;4.13;;;24.70;99.90;;;;;;5071935;28;20059;-90
2023/08/24 09:28:39;;;;;;;5.55;4.40;;;24.60;99.90;;;;;;5022573;28;20042;-89
2023/08/24 09:31:05;;;;;;;7.38;4.68;;;24.70;99.90;;;;;;5055202;28;20154;-90
2023/08/24 09:33:31;;;;;;;7.07;4.50;;;24.90;99.90;;;;;;5024992;28;20037;-89
2023/08/24 09:36:01;;;;;;;6.65;4.85;;;25.50;99.90;;;;;;5018196;28;20447;-89
2023/08/24 09:38:28;;;;;;;6.03;4.25;;;25.20;99.90;;;;;;5023161;28;20059;-88
2023/08/24 09:40:55;;;;;;;10.82;4.65;;;25.20;99.90;;;;;;5038669;28;20067;-90
2023/08/24 09:43:22;;;;;;;8.75;5.22;;;25.10;99.90;;;;;;5054287;28;20063;-89
2023/08/24 09:45:50;;;;;;;10.38;4.60;;;25.10;99.90;;;;;;5054768;28;20715;-89
2023/08/24 09:48:17;;;;;;;6.18;4.55;;;25.10;99.90;;;;;;5054239;28;20144;-90
2023/08/24 09:50:46;;;;;;;6.60;4.53;;;25.20;99.90;;;;;;5026280;28;20461;-90
2023/08/24 09:53:20;;;;;;;6.03;5.00;;;25.10;99.90;;;;;;5028512;28;20124;-89
2023/08/24 09:55:52;;;;;;;8.95;4.85;;;25.10;99.90;;;;;;5017258;28;20032;-89
2023/08/24 09:58:19;;;;;;;6.35;4.13;;;25.00;99.90;;;;;;5037626;28;20033;-91
2023/08/24 10:00:47;;;;;;;7.47;4.70;;;25.10;99.90;;;;;;5038256;28;20040;-90
2023/08/24 10:03:41;;;;;;;9.50;5.50;;;25.10;99.90;;;;;;5038576;28;20051;-89
2023/08/24 10:06:10;;;;;;;8.32;5.53;;;25.10;99.90;;;;;;5033506;28;20902;-89
2023/08/24 10:08:38;;;;;;;7.72;5.15;;;25.10;99.90;;;;;;5037027;28;20476;-90
2023/08/24 10:11:06;;;;;;;7.50;4.93;;;25.00;99.90;;;;;;5035183;28;20385;-89
2023/08/24 10:13:37;;;;;;;7.60;4.93;;;25.00;99.90;;;;;;5042302;28;20080;-88
2023/08/24 10:16:05;;;;;;;8.15;4.95;;;24.40;99.90;;;;;;5038028;28;20054;-89
2023/08/24 10:18:31;;;;;;;6.28;4.40;;;25.00;99.90;;;;;;5046657;28;20063;-89
2023/08/24 10:20:58;;;;;;;9.25;5.13;;;25.00;99.90;;;;;;5027281;28;20119;-89
2023/08/24 10:23:24;;;;;;;8.27;5.55;;;25.00;99.90;;;;;;5045203;28;20048;-89
2023/08/24 10:25:52;;;;;;;8.02;4.70;;;25.00;99.90;;;;;;5033176;28;20056;-90
2023/08/24 10:28:20;;;;;;;7.28;4.95;;;25.10;99.90;;;;;;5005289;28;20037;-90
2023/08/24 10:30:47;;;;;;;6.57;4.78;;;25.10;99.90;;;;;;5037880;28;20036;-89
2023/08/24 10:33:15;;;;;;;5.93;4.38;;;25.10;99.90;;;;;;5020743;28;20041;-90
2023/08/24 10:35:41;;;;;;;7.75;5.55;;;25.20;99.90;;;;;;5054450;28;20086;-91
2023/08/24 10:38:07;;;;;;;8.07;4.70;;;24.10;99.90;;;;;;5036531;28;20071;-89
2023/08/24 10:40:34;;;;;;;6.75;5.20;;;25.10;99.90;;;;;;5054281;28;20094;-89
2023/08/24 10:43:07;;;;;;;5.95;4.90;;;25.10;99.90;;;;;;5039631;28;20050;-90
2023/08/24 10:45:58;;;;;;;6.10;5.07;;;25.10;99.90;;;;;;5021707;28;20098;-88
2023/08/24 10:48:29;;;;;;;8.55;5.75;;;25.00;99.90;;;;;;5034074;28;20033;-88
2023/08/24 10:51:13;;;;;;;8.43;6.10;;;24.70;99.90;;;;;;5045663;28;20221;-90
2023/08/24 10:53:46;;;;;;;;;;;23.80;99.90;;;;;;5035945;28;20491;-90
2023/08/24 10:56:13;;;;;;;9.57;5.53;;;24.90;99.90;;;;;;5034225;28;19916;-90
2023/08/24 10:58:41;;;;;;;8.93;6.05;;;24.90;99.90;;;;;;5034976;28;20165;-89
2023/08/24 11:01:07;;;;;;;9.23;6.35;;;24.90;99.90;;;;;;5016956;28;20510;-90
2023/08/24 11:03:36;;;;;;;8.80;6.00;;;24.90;99.90;;;;;;4999460;28;20079;-89
2023/08/24 11:06:18;;;;;;;7.93;5.93;;;24.90;99.90;;;;;;5007528;28;20367;-89
2023/08/24 11:08:45;;;;;;;5.97;5.32;;;24.90;99.90;;;;;;5039638;28;20134;-90
2023/08/24 11:11:25;;;;;;;8.02;5.95;;;23.20;99.90;;;;;;5041126;28;20047;-89
2023/08/24 11:14:14;;;;;;;9.50;6.28;;;24.90;99.90;;;;;;5018672;28;20044;-90
2023/08/24 11:16:48;;;;;;;8.70;6.32;;;24.90;99.90;;;;;;5033004;28;20044;-89
2023/08/24 11:19:15;;;;;;;10.48;6.65;;;25.00;99.90;;;;;;5021841;28;20069;-88
2023/08/24 11:21:42;;;;;;;8.13;5.57;;;25.00;99.90;;;;;;5036617;28;20127;-88
2023/08/24 11:24:16;;;;;;;10.52;6.45;;;25.00;99.90;;;;;;5033833;28;20099;-88
2023/08/24 11:26:52;;;;;;;11.43;5.97;;;25.00;99.90;;;;;;5023665;28;20045;-90
2023/08/24 11:29:18;;;;;;;8.00;6.15;;;25.00;99.90;;;;;;5032405;28;20040;-89
2023/08/24 11:31:44;;;;;;;6.57;5.70;;;24.90;99.90;;;;;;5020307;28;20565;-89
2023/08/24 11:34:15;;;;;;;9.18;5.90;;;25.10;99.90;;;;;;5005487;28;20041;-89
2023/08/24 11:36:46;;;;;;;6.55;5.85;;;25.10;99.90;;;;;;5036340;28;20452;-88
2023/08/24 11:39:20;;;;;;;7.97;6.43;;;25.50;99.90;;;;;;5020329;28;20041;-89
2023/08/24 11:42:03;;;;;;;9.15;7.20;;;25.20;99.90;;;;;;5026104;28;20037;-89
2023/08/24 11:44:48;;;;;;;8.40;6.75;;;25.10;99.90;;;;;;5057580;28;20048;-90
2023/08/24 11:47:15;;;;;;;10.52;6.90;;;25.10;99.90;;;;;;5000807;28;20075;-89
2023/08/24 11:49:42;;;;;;;7.75;6.45;;;25.20;99.90;;;;;;5040374;28;20041;-89
2023/08/24 11:52:08;;;;;;;7.03;5.90;;;25.40;99.90;;;;;;5040071;28;20032;-89
2023/08/24 11:54:38;;;;;;;9.27;5.57;;;25.50;99.90;;;;;;5040037;28;20149;-89
2023/08/24 11:57:06;;;;;;;10.43;5.70;;;25.70;99.90;;;;;;5009797;28;20043;-89
2023/08/24 11:59:32;;;;;;;8.60;6.20;;;25.90;99.90;;;;;;5012738;28;20042;-89
2023/08/24 12:01:59;;;;;;;6.90;5.65;;;25.90;99.90;;;;;;4999208;28;20120;-89
2023/08/24 12:04:26;;;;;;;8.75;6.07;;;25.90;99.90;;;;;;5039296;28;20051;-90
2023/08/24 12:06:53;;;;;;;8.95;6.18;;;26.20;99.90;;;;;;5004082;28;20589;-89
2023/08/24 12:09:18;;;;;;;7.40;5.53;;;26.10;99.90;;;;;;4994393;28;20037;-88
2023/08/24 12:11:45;;;;;;;6.45;5.07;;;26.20;99.90;;;;;;5023347;28;20115;-89
2023/08/24 12:14:17;;;;;;;8.73;5.68;;;26.50;99.90;;;;;;5006826;28;20064;-89
2023/08/24 12:16:44;;;;;;;7.88;5.97;;;26.40;99.90;;;;;;5021498;28;20048;-89
2023/08/24 12:19:10;;;;;;;8.82;6.63;;;26.40;99.90;;;;;;5026716;28;20029;-90
2023/08/24 12:21:36;;;;;;;7.03;5.95;;;26.30;99.90;;;;;;5019478;28;20033;-90
2023/08/24 12:24:05;;;;;;;6.72;6.03;;;26.40;99.90;;;;;;4998595;28;20127;-90
2023/08/24 12:26:32;;;;;;;7.03;6.28;;;26.30;99.90;;;;;;5009761;28;20051;-89
2023/08/24 12:29:06;;;;;;;9.23;6.80;;;26.30;99.90;;;;;;5023181;28;20120;-89
2023/08/24 12:31:36;;;;;;;8.65;7.18;;;26.20;99.90;;;;;;5014534;28;20098;-90
2023/08/24 12:34:10;;;;;;;8.88;6.63;;;26.30;99.90;;;;;;5035026;28;20047;-89
2023/08/24 12:36:37;;;;;;;7.38;6.43;;;26.40;99.90;;;;;;5034276;28;20036;-89
2023/08/24 12:39:04;;;;;;;7.18;5.65;;;26.40;99.90;;;;;;5037540;28;20090;-89
2023/08/24 12:41:32;;;;;;;7.10;5.93;;;26.30;99.90;;;;;;5019949;28;20037;-89
2023/08/24 12:43:59;;;;;;;8.43;6.15;;;26.30;99.90;;;;;;5005927;28;20131;-90
2023/08/24 12:46:25;;;;;;;9.23;6.68;;;26.30;99.90;;;;;;5026592;28;20059;-89
2023/08/24 12:48:51;;;;;;;9.48;6.63;;;26.30;99.90;;;;;;5014955;28;20045;-91